createdAt,value
2022-08-03T00:01:30.595Z,64.03
2022-08-03T00:03:57.626Z,64.12
2022-08-03T00:06:24.726Z,64.07
2022-08-03T00:08:52.032Z,63.93
2022-08-03T00:11:19.364Z,63.44
2022-08-03T00:13:46.654Z,63.31
2022-08-03T00:16:14.614Z,63.20
2022-08-03T00:18:42.324Z,63.23
2022-08-03T00:21:09.961Z,62.85
2022-08-03T00:23:51.266Z,62.92
2022-08-03T00:26:19.027Z,62.82
2022-08-03T00:28:46.010Z,62.51
2022-08-03T00:31:13.487Z,62.91
2022-08-03T00:33:59.034Z,63.04
2022-08-03T00:36:27.619Z,63.11
2022-08-03T00:38:55.056Z,63.08
2022-08-03T00:41:22.029Z,63.23
2022-08-03T00:43:49.072Z,63.37
2022-08-03T00:46:21.060Z,63.71
2022-08-03T00:48:52.767Z,64.11
2022-08-03T00:51:21.946Z,63.58
2022-08-03T00:53:50.278Z,63.60
2022-08-03T00:56:17.849Z,63.61
2022-08-03T00:58:48.001Z,64.03
2022-08-03T01:01:15.599Z,63.74
2022-08-03T01:03:43.098Z,64.01
2022-08-03T01:06:15.948Z,64.01
2022-08-03T01:08:57.315Z,64.40
2022-08-03T01:11:28.658Z,64.40
2022-08-03T01:14:27.350Z,64.54
2022-08-03T01:16:54.312Z,64.13
2022-08-03T01:19:52.839Z,64.33
2022-08-03T01:22:31.994Z,64.77
2022-08-03T01:25:22.302Z,65.02
2022-08-03T01:28:12.192Z,65.26
2022-08-03T01:30:43.850Z,65.10
2022-08-03T01:33:15.170Z,64.88
2022-08-03T01:35:48.333Z,65.14
2022-08-03T01:38:33.811Z,65.21
2022-08-03T01:41:07.969Z,65.32
2022-08-03T01:44:26.629Z,65.39
2022-08-03T01:46:26.423Z,65.77
2022-08-03T01:48:55.363Z,65.51
2022-08-03T01:51:23.924Z,65.63
2022-08-03T01:54:12.135Z,65.75
2022-08-03T01:56:42.959Z,66.03
2022-08-03T01:59:12.316Z,66.64
2022-08-03T02:02:32.170Z,67.06
2022-08-03T02:04:29.366Z,66.74
2022-08-03T02:07:01.157Z,66.77
2022-08-03T02:09:31.998Z,66.88
2022-08-03T02:12:00.885Z,67.18
2022-08-03T02:14:29.054Z,67.32
2022-08-03T02:16:57.654Z,67.53
2022-08-03T02:19:26.164Z,67.23
2022-08-03T02:21:56.602Z,67.55
2022-08-03T02:24:30.197Z,67.74
2022-08-03T02:26:58.888Z,67.70
2022-08-03T02:29:39.457Z,67.54
2022-08-03T02:32:17.632Z,67.83
2022-08-03T02:34:47.678Z,67.99
2022-08-03T02:37:18.153Z,68.19
2022-08-03T02:39:47.119Z,68.09
2022-08-03T02:42:17.406Z,68.12
2022-08-03T02:44:48.620Z,68.13
2022-08-03T02:47:21.147Z,68.28
2022-08-03T02:49:52.449Z,68.18
2022-08-03T02:52:23.526Z,67.94
2022-08-03T02:54:53.901Z,68.43
2022-08-03T02:57:23.559Z,68.03
2022-08-03T02:59:52.422Z,67.94
2022-08-03T03:02:20.793Z,68.15
2022-08-03T03:05:52.793Z,68.14
2022-08-03T03:07:51.256Z,68.09
2022-08-03T03:10:21.600Z,68.19
2022-08-03T03:12:52.288Z,67.70
2022-08-03T03:15:19.582Z,66.50
2022-08-03T03:17:49.878Z,65.97
2022-08-03T03:20:29.358Z,66.31
2022-08-03T03:23:00.637Z,66.52
2022-08-03T03:25:30.897Z,65.44
2022-08-03T03:28:00.391Z,65.74
2022-08-03T03:30:30.100Z,66.27
2022-08-03T03:32:58.968Z,65.05
2022-08-03T03:35:28.073Z,65.45
2022-08-03T03:37:55.482Z,64.49
2022-08-03T03:40:23.238Z,63.82
2022-08-03T03:42:50.839Z,63.27
2022-08-03T03:45:18.933Z,63.72
2022-08-03T03:47:46.004Z,63.72
2022-08-03T03:50:13.278Z,61.83
2022-08-03T03:52:40.291Z,61.46
2022-08-03T03:55:07.832Z,62.25
2022-08-03T03:57:35.311Z,62.59
2022-08-03T04:00:02.507Z,62.18
2022-08-03T04:02:31.842Z,61.55
2022-08-03T04:05:17.498Z,60.29
2022-08-03T04:08:16.612Z,60.45
2022-08-03T04:11:00.766Z,60.92
2022-08-03T04:13:40.733Z,61.04
2022-08-03T04:16:10.970Z,60.42
2022-08-03T04:18:40.581Z,59.10
2022-08-03T04:21:11.666Z,59.73
2022-08-03T04:23:44.999Z,59.10
2022-08-03T04:26:15.252Z,59.75
2022-08-03T04:28:46.178Z,57.45
2022-08-03T04:31:15.113Z,57.16
2022-08-03T04:33:45.026Z,56.63
2022-08-03T04:36:16.300Z,56.43
2022-08-03T04:39:06.965Z,53.72
2022-08-03T04:42:06.732Z,52.49
2022-08-03T04:44:28.127Z,48.02
2022-08-03T04:46:57.195Z,46.16
2022-08-03T04:49:24.759Z,44.49
2022-08-03T04:51:52.832Z,42.30
2022-08-03T04:54:19.827Z,40.91
2022-08-03T04:56:46.881Z,39.42
2022-08-03T04:59:14.325Z,37.79
2022-08-03T05:01:42.491Z,36.41
2022-08-03T05:04:09.821Z,35.79
2022-08-03T05:06:37.037Z,34.25
2022-08-03T05:09:15.038Z,33.43
2022-08-03T05:12:02.040Z,33.02
2022-08-03T05:14:29.165Z,32.71
2022-08-03T05:16:56.112Z,32.16
2022-08-03T05:19:23.136Z,31.18
2022-08-03T05:21:52.386Z,30.46
2022-08-03T05:24:20.083Z,29.67
2022-08-03T05:26:47.094Z,29.46
2022-08-03T05:29:14.176Z,29.26
2022-08-03T05:31:41.146Z,28.07
2022-08-03T05:34:08.411Z,28.15
2022-08-03T05:36:35.450Z,27.37
2022-08-03T05:39:03.022Z,26.84
2022-08-03T05:41:36.548Z,25.61
2022-08-03T05:44:05.174Z,25.63
2022-08-03T05:46:32.229Z,24.96
2022-08-03T05:48:59.387Z,24.70
2022-08-03T05:51:26.577Z,24.32
2022-08-03T05:53:53.605Z,23.85
2022-08-03T05:56:26.910Z,23.35
2022-08-03T05:58:54.160Z,23.35
2022-08-03T06:01:22.176Z,23.60
2022-08-03T06:03:50.904Z,23.11
2022-08-03T06:06:18.846Z,23.04
2022-08-03T06:08:46.607Z,22.33
2022-08-03T06:11:13.900Z,23.26
2022-08-03T06:13:41.696Z,24.21
2022-08-03T06:16:08.868Z,23.43
2022-08-03T06:18:36.507Z,22.79
2022-08-03T06:21:14.098Z,22.49
2022-08-03T06:23:53.179Z,22.07
2022-08-03T06:26:22.721Z,22.08
2022-08-03T06:28:52.812Z,21.78
2022-08-03T06:31:24.189Z,22.80
2022-08-03T06:34:34.182Z,23.95
2022-08-03T06:36:39.221Z,24.91
2022-08-03T06:39:06.495Z,24.24
2022-08-03T06:41:37.442Z,22.52
2022-08-03T06:44:08.533Z,22.61
2022-08-03T06:46:37.543Z,22.62
2022-08-03T06:49:04.663Z,21.85
2022-08-03T06:52:37.461Z,21.46
2022-08-03T06:54:19.029Z,20.10
2022-08-03T06:56:46.053Z,20.15
2022-08-03T07:00:05.888Z,19.61
2022-08-03T07:02:00.036Z,19.95
2022-08-03T07:04:26.982Z,20.06
2022-08-03T07:06:55.329Z,19.07
2022-08-03T07:09:22.677Z,18.92
2022-08-03T07:11:49.703Z,19.02
2022-08-03T07:14:16.812Z,18.41
2022-08-03T07:16:43.799Z,18.85
2022-08-03T07:19:11.231Z,19.12
2022-08-03T07:21:38.391Z,19.34
2022-08-03T07:24:05.897Z,18.83
2022-08-03T07:26:32.898Z,18.79
2022-08-03T07:29:01.665Z,18.95
2022-08-03T07:31:28.711Z,19.45
2022-08-03T07:34:01.602Z,19.36
2022-08-03T07:36:28.657Z,19.66
2022-08-03T07:38:55.650Z,19.18
2022-08-03T07:41:22.704Z,18.06
2022-08-03T07:43:49.709Z,18.37
2022-08-03T07:46:16.688Z,19.36
2022-08-03T07:48:43.670Z,19.73
2022-08-03T07:51:10.889Z,20.60
2022-08-03T07:53:37.925Z,21.84
2022-08-03T07:56:17.742Z,21.47
2022-08-03T07:58:44.785Z,20.28
2022-08-03T08:01:11.944Z,20.31
2022-08-03T08:03:52.373Z,19.25
2022-08-03T08:06:21.320Z,18.55
2022-08-03T08:08:48.412Z,18.05
2022-08-03T08:11:15.503Z,16.65
2022-08-03T08:13:42.552Z,16.67
2022-08-03T08:16:09.616Z,16.90
2022-08-03T08:18:40.124Z,15.13
2022-08-03T08:21:07.362Z,15.01
2022-08-03T08:23:42.032Z,15.68
2022-08-03T08:26:13.377Z,16.29
2022-08-03T08:28:40.459Z,16.98
2022-08-03T08:31:07.976Z,17.21
2022-08-03T08:36:24.131Z,18.37
2022-08-03T08:38:57.621Z,19.02
2022-08-03T08:41:25.847Z,19.73
2022-08-03T08:44:00.247Z,20.76
2022-08-03T08:46:42.661Z,21.27
2022-08-03T08:49:27.049Z,22.51
2022-08-03T08:52:00.915Z,24.04
2022-08-03T08:54:32.593Z,24.29
2022-08-03T08:57:21.094Z,25.54
2022-08-03T08:59:56.990Z,25.75
2022-08-03T09:02:25.340Z,25.66
2022-08-03T09:04:53.535Z,26.81
2022-08-03T09:07:20.878Z,28.01
2022-08-03T09:10:11.496Z,27.76
2022-08-03T09:12:48.192Z,28.64
2022-08-03T09:15:21.733Z,24.27
2022-08-03T09:17:51.306Z,24.89
2022-08-03T09:20:20.306Z,23.15
2022-08-03T09:22:59.408Z,21.91
2022-08-03T09:25:30.494Z,23.96
2022-08-03T09:28:05.318Z,25.86
2022-08-03T09:30:34.599Z,25.39
2022-08-03T09:33:04.312Z,25.72
2022-08-03T09:38:24.307Z,26.70
2022-08-03T09:40:54.835Z,26.35
2022-08-03T09:43:27.658Z,25.58
2022-08-03T09:46:07.602Z,26.18
2022-08-03T09:48:35.656Z,26.33
2022-08-03T09:51:13.836Z,26.16
2022-08-03T09:53:59.341Z,25.95
2022-08-03T09:56:45.130Z,23.03
2022-08-03T09:59:13.527Z,21.29
2022-08-03T10:01:42.017Z,19.71
2022-08-03T10:04:17.133Z,18.78
2022-08-03T10:06:45.744Z,19.08
2022-08-03T10:09:15.479Z,18.33
2022-08-03T10:11:43.869Z,17.65
2022-08-03T10:14:19.185Z,17.28
2022-08-03T10:16:47.921Z,16.19
2022-08-03T10:19:15.855Z,16.19
2022-08-03T10:21:50.178Z,15.25
2022-08-03T10:24:24.559Z,15.82
2022-08-03T10:26:51.873Z,16.31
2022-08-03T10:29:25.275Z,15.60
2022-08-03T10:31:58.129Z,15.20
2022-08-03T10:34:35.340Z,15.87
2022-08-03T10:37:08.586Z,16.60
2022-08-03T10:39:36.393Z,16.81
2022-08-03T10:42:05.535Z,16.39
2022-08-03T10:44:42.465Z,18.72
2022-08-03T10:47:10.442Z,19.08
2022-08-03T10:49:38.424Z,17.59
2022-08-03T10:52:13.758Z,17.34
2022-08-03T10:55:12.529Z,16.57
2022-08-03T10:57:56.229Z,16.98
2022-08-03T11:00:30.387Z,17.81
2022-08-03T11:03:08.913Z,16.48
2022-08-03T11:05:41.586Z,16.69
2022-08-03T11:08:28.815Z,17.26
2022-08-03T11:10:58.995Z,17.66
2022-08-03T11:13:31.066Z,16.59
2022-08-03T11:16:02.371Z,15.46
2022-08-03T11:18:31.131Z,14.71
2022-08-03T11:21:00.591Z,14.63
2022-08-03T11:24:04.309Z,14.19
2022-08-03T11:26:31.460Z,15.72
2022-08-03T11:29:31.058Z,17.21
2022-08-03T11:31:58.203Z,18.56
2022-08-03T11:34:25.295Z,19.66
2022-08-03T11:37:37.360Z,20.56
2022-08-03T11:40:04.924Z,21.16
2022-08-03T11:42:35.387Z,22.05
2022-08-03T11:45:07.710Z,22.48
2022-08-03T11:47:50.444Z,23.87
2022-08-03T11:50:20.063Z,24.09
2022-08-03T11:52:48.157Z,24.69
2022-08-03T11:55:20.488Z,25.47
2022-08-03T11:59:01.615Z,26.29
2022-08-03T12:00:35.561Z,27.23
2022-08-03T12:03:12.149Z,26.68
2022-08-03T12:05:42.506Z,28.51
2022-08-03T12:08:40.128Z,29.33
2022-08-03T12:11:10.864Z,28.91
2022-08-03T12:13:56.647Z,28.22
2022-08-03T12:16:29.156Z,28.74
2022-08-03T12:19:05.254Z,28.49
2022-08-03T12:21:32.829Z,29.38
2022-08-03T12:24:03.551Z,29.46
2022-08-03T12:26:58.815Z,28.23
2022-08-03T12:29:27.250Z,28.78
2022-08-03T12:31:55.952Z,29.62
2022-08-03T12:34:23.473Z,29.61
2022-08-03T12:36:52.577Z,30.76
2022-08-03T12:39:24.385Z,29.87
2022-08-03T12:41:55.537Z,29.89
2022-08-03T12:44:33.927Z,30.08
2022-08-03T12:47:02.527Z,30.34
2022-08-03T12:49:44.466Z,31.42
2022-08-03T12:52:11.666Z,30.54
2022-08-03T12:54:38.727Z,30.16
2022-08-03T12:57:08.248Z,29.76
2022-08-03T12:59:45.211Z,29.43
2022-08-03T13:02:24.182Z,29.44
2022-08-03T13:04:54.174Z,29.38
2022-08-03T13:07:22.191Z,29.74
2022-08-03T13:09:54.707Z,29.93
2022-08-03T13:12:26.317Z,29.73
2022-08-03T13:14:59.354Z,30.61
2022-08-03T13:17:27.253Z,30.63
2022-08-03T13:19:54.322Z,31.09
2022-08-03T13:22:27.459Z,31.01
2022-08-03T13:24:56.746Z,31.21
2022-08-03T13:28:03.721Z,31.43
2022-08-03T13:30:12.335Z,32.08
2022-08-03T13:32:39.611Z,32.36
2022-08-03T13:35:07.830Z,33.57
2022-08-03T13:37:35.623Z,33.17
2022-08-03T13:40:05.865Z,33.96
2022-08-03T13:42:34.601Z,33.94
2022-08-03T13:45:02.549Z,33.99
2022-08-03T13:47:31.391Z,34.31
2022-08-03T13:50:01.197Z,35.04
2022-08-03T13:52:34.280Z,35.04
2022-08-03T13:55:06.447Z,35.56
2022-08-03T13:58:03.515Z,35.53
2022-08-03T14:00:27.433Z,36.72
2022-08-03T14:03:12.264Z,34.50
2022-08-03T14:05:42.152Z,35.12
2022-08-03T14:08:09.545Z,34.68
2022-08-03T14:10:38.929Z,36.19
2022-08-03T14:13:06.873Z,35.58
2022-08-03T14:15:37.902Z,34.12
2022-08-03T14:18:15.702Z,35.25
2022-08-03T14:20:48.720Z,33.16
2022-08-03T14:23:18.795Z,32.95
2022-08-03T14:25:51.641Z,32.47
2022-08-03T14:28:22.756Z,34.20
2022-08-03T14:30:56.050Z,34.36
2022-08-03T14:33:24.484Z,35.17
2022-08-03T14:35:52.293Z,35.73
2022-08-03T14:38:20.239Z,36.10
2022-08-03T14:40:47.919Z,36.69
2022-08-03T14:43:15.689Z,36.20
2022-08-03T14:45:42.821Z,34.75
2022-08-03T14:50:29.667Z,36.54
2022-08-03T14:50:57.241Z,36.85
2022-08-03T14:53:24.620Z,36.92
2022-08-03T14:55:53.488Z,34.98
2022-08-03T14:58:22.303Z,36.71
2022-08-03T15:00:51.049Z,35.57
2022-08-03T15:03:21.577Z,35.32
2022-08-03T15:05:55.756Z,36.64
2022-08-03T15:08:24.817Z,37.44
2022-08-03T15:10:52.787Z,37.42
2022-08-03T15:13:20.891Z,37.48
2022-08-03T15:15:48.615Z,37.33
2022-08-03T15:18:16.019Z,36.44
2022-08-03T15:20:45.597Z,38.14
2022-08-03T15:23:14.937Z,35.51
2022-08-03T15:26:28.329Z,35.79
2022-08-03T15:28:30.692Z,36.60
2022-08-03T15:30:57.888Z,37.39
2022-08-03T15:33:25.390Z,35.00
2022-08-03T15:35:53.455Z,36.71
2022-08-03T15:38:25.627Z,36.93
2022-08-03T15:40:59.193Z,36.88
2022-08-03T15:43:26.300Z,37.07
2022-08-03T15:48:41.691Z,38.04
2022-08-03T15:51:09.688Z,36.15
2022-08-03T15:53:37.381Z,37.34
2022-08-03T15:56:09.830Z,36.82
2022-08-03T15:59:09.202Z,38.03
2022-08-03T16:01:27.975Z,38.52
2022-08-03T16:03:55.623Z,37.49
2022-08-03T16:06:34.840Z,37.54
2022-08-03T16:09:23.823Z,38.08
2022-08-03T16:11:54.068Z,38.43
2022-08-03T16:14:34.301Z,39.09
2022-08-03T16:17:03.912Z,37.90
2022-08-03T16:19:30.971Z,38.42
2022-08-03T16:21:57.989Z,39.44
2022-08-03T16:24:28.127Z,39.76
2022-08-03T16:26:56.422Z,39.56
2022-08-03T16:29:24.043Z,40.11
2022-08-03T16:31:52.394Z,40.32
2022-08-03T16:34:20.122Z,40.61
2022-08-03T16:36:47.271Z,41.31
2022-08-03T16:39:14.297Z,40.74
2022-08-03T16:41:53.976Z,41.10
2022-08-03T16:44:30.220Z,41.44
2022-08-03T16:46:57.968Z,40.93
2022-08-03T16:49:54.265Z,41.49
2022-08-03T16:52:13.016Z,41.53
2022-08-03T16:54:40.855Z,41.39
2022-08-03T16:57:08.783Z,41.55
2022-08-03T16:59:36.969Z,42.31
2022-08-03T17:02:10.037Z,42.34
2022-08-03T17:04:40.232Z,42.30
2022-08-03T17:07:08.889Z,42.59
2022-08-03T17:09:38.185Z,42.97
2022-08-03T17:12:07.166Z,42.78
2022-08-03T17:14:34.303Z,43.17
2022-08-03T17:17:03.857Z,43.42
2022-08-03T17:19:33.369Z,43.29
2022-08-03T17:22:04.356Z,43.49
2022-08-03T17:24:41.349Z,43.78
2022-08-03T17:28:41.602Z,44.64
2022-08-03T17:30:12.222Z,44.69
2022-08-03T17:32:57.129Z,44.56
2022-08-03T17:35:36.701Z,45.35
2022-08-03T17:38:10.289Z,45.57
2022-08-03T17:40:48.157Z,45.63
2022-08-03T17:44:13.019Z,45.80
2022-08-03T17:46:07.315Z,46.03
2022-08-03T17:48:41.357Z,45.80
2022-08-03T17:51:30.450Z,46.08
2022-08-03T17:54:27.031Z,46.81
2022-08-03T17:56:54.692Z,46.53
2022-08-03T17:59:51.497Z,47.21
2022-08-03T18:06:11.371Z,47.40
2022-08-03T18:08:27.812Z,47.66
2022-08-03T18:11:16.851Z,47.57
2022-08-03T18:13:57.613Z,48.01
2022-08-03T18:16:34.711Z,47.70
2022-08-03T18:19:09.552Z,47.31
2022-08-03T18:22:03.088Z,47.63
2022-08-03T18:24:30.923Z,47.64
2022-08-03T18:27:02.311Z,47.60
2022-08-03T18:29:30.818Z,47.98
2022-08-03T18:32:03.415Z,47.82
2022-08-03T18:34:34.613Z,47.33
2022-08-03T18:37:07.364Z,47.27
2022-08-03T18:39:49.559Z,47.06
2022-08-03T18:42:19.499Z,46.81
2022-08-03T18:44:53.105Z,47.05
2022-08-03T18:47:50.969Z,47.40
2022-08-03T18:50:34.184Z,47.17
2022-08-03T18:54:03.419Z,47.38
2022-08-03T18:56:31.786Z,47.56
2022-08-03T18:59:30.301Z,47.42
2022-08-03T19:02:05.237Z,46.68
2022-08-03T19:04:55.160Z,46.33
2022-08-03T19:07:27.124Z,46.66
2022-08-03T19:09:58.439Z,47.35
2022-08-03T19:12:39.492Z,47.57
2022-08-03T19:15:13.389Z,47.64
2022-08-03T19:17:50.237Z,46.72
2022-08-03T19:20:31.114Z,47.66
2022-08-03T19:22:59.662Z,47.53
2022-08-03T19:25:35.421Z,46.50
2022-08-03T19:28:07.200Z,46.61
2022-08-03T19:30:38.821Z,47.28
2022-08-03T19:33:14.507Z,47.43
2022-08-03T19:35:55.450Z,47.59
2022-08-03T19:38:28.224Z,47.51
2022-08-03T19:40:59.857Z,47.91
2022-08-03T19:43:52.850Z,48.32
2022-08-03T19:46:30.179Z,48.53
2022-08-03T19:49:16.040Z,48.97
2022-08-03T19:51:59.412Z,48.94
2022-08-03T19:54:52.923Z,49.43
2022-08-03T19:57:30.756Z,49.65
2022-08-03T20:00:03.597Z,49.72
2022-08-03T20:02:40.590Z,49.97
2022-08-03T20:08:00.163Z,49.88
2022-08-03T20:10:33.233Z,50.21
2022-08-03T20:13:01.876Z,50.33
2022-08-03T20:15:33.800Z,50.70
2022-08-03T20:18:16.883Z,50.91
2022-08-03T20:20:59.978Z,50.75
2022-08-03T20:23:37.306Z,50.63
2022-08-03T20:26:05.801Z,51.14
2022-08-03T20:28:49.703Z,51.11
2022-08-03T20:31:20.809Z,50.96
2022-08-03T20:33:49.784Z,51.18
2022-08-03T20:36:18.568Z,51.38
2022-08-03T20:38:48.062Z,51.34
2022-08-03T20:41:17.439Z,51.70
2022-08-03T20:43:45.165Z,51.44
2022-08-03T20:46:29.474Z,51.62
2022-08-03T20:49:04.102Z,51.81
2022-08-03T20:51:50.051Z,51.89
2022-08-03T20:54:30.810Z,51.75
2022-08-03T20:57:03.841Z,51.94
2022-08-03T20:59:47.090Z,52.00
2022-08-03T21:02:28.822Z,52.02
2022-08-03T21:05:03.219Z,51.92
2022-08-03T21:08:04.161Z,52.04
2022-08-03T21:10:29.585Z,52.03
2022-08-03T21:12:56.490Z,47.73
2022-08-03T21:13:10.908Z,50.04
2022-08-03T21:13:18.196Z,52.35
2022-08-03T21:16:11.386Z,52.55
2022-08-03T21:18:49.532Z,52.65
2022-08-03T21:21:20.170Z,52.78
2022-08-03T21:23:52.844Z,52.78
2022-08-03T21:26:25.480Z,53.16
2022-08-03T21:28:54.975Z,53.24
2022-08-03T21:31:25.378Z,52.98
2022-08-03T21:33:56.255Z,53.23
2022-08-03T21:36:24.891Z,53.19
2022-08-03T21:38:56.190Z,53.61
2022-08-03T21:41:25.428Z,53.61
2022-08-03T21:43:52.496Z,54.03
2022-08-03T21:46:20.735Z,54.14
2022-08-03T21:48:51.406Z,54.41
2022-08-03T21:51:20.109Z,54.55
2022-08-03T21:54:00.385Z,54.71
2022-08-03T21:56:41.280Z,54.96
2022-08-03T21:59:17.245Z,55.49
2022-08-03T22:01:49.039Z,55.83
2022-08-03T22:04:50.387Z,56.01
2022-08-03T22:07:08.633Z,56.16
2022-08-03T22:09:36.562Z,56.65
2022-08-03T22:12:04.566Z,56.99
2022-08-03T22:14:34.962Z,57.20
2022-08-03T22:17:03.380Z,57.28
2022-08-03T22:19:33.174Z,57.40
2022-08-03T22:22:01.753Z,57.83
2022-08-03T22:24:32.087Z,58.19
2022-08-03T22:27:19.988Z,58.12
2022-08-03T22:29:47.360Z,58.78
2022-08-03T22:32:14.343Z,58.69
2022-08-03T22:34:43.009Z,58.61
2022-08-03T22:37:11.519Z,58.86
2022-08-03T22:39:39.963Z,58.80
2022-08-03T22:42:07.413Z,58.96
2022-08-03T22:44:36.049Z,58.92
2022-08-03T22:47:04.462Z,59.56
2022-08-03T22:49:32.647Z,59.57
2022-08-03T22:52:01.499Z,59.99
2022-08-03T22:54:31.439Z,59.99
2022-08-03T22:56:58.797Z,59.89
2022-08-03T22:59:40.488Z,59.92
2022-08-03T23:02:20.169Z,59.82
2022-08-03T23:04:52.389Z,60.00
2022-08-03T23:07:23.635Z,60.03
2022-08-03T23:09:51.687Z,60.54
2022-08-03T23:12:20.446Z,60.34
2022-08-03T23:14:56.523Z,61.12
2022-08-03T23:17:24.435Z,60.75
2022-08-03T23:19:53.879Z,60.99
2022-08-03T23:22:30.056Z,61.03
2022-08-03T23:24:59.237Z,61.31
2022-08-03T23:27:28.235Z,61.35
2022-08-03T23:29:58.549Z,61.82
2022-08-03T23:32:27.370Z,61.95
2022-08-03T23:35:18.949Z,62.25
2022-08-03T23:38:04.203Z,62.21
2022-08-03T23:40:35.372Z,62.45
2022-08-03T23:43:03.485Z,62.54
2022-08-03T23:45:34.695Z,62.68
2022-08-03T23:48:01.975Z,63.06
2022-08-03T23:50:37.952Z,62.81
2022-08-03T23:53:14.153Z,63.34
2022-08-03T23:56:04.549Z,62.93
2022-08-03T23:58:52.931Z,63.47
